createdAt,value
2022-08-20T00:00:41.274Z,10.00
2022-08-20T00:03:31.445Z,10.07
2022-08-20T00:06:02.435Z,12.43
2022-08-20T00:08:30.318Z,11.07
2022-08-20T00:10:58.975Z,11.87
2022-08-20T00:13:33.214Z,11.80
2022-08-20T00:16:00.556Z,12.47
2022-08-20T00:18:27.539Z,12.47
2022-08-20T00:20:55.967Z,13.50
2022-08-20T00:23:23.574Z,13.30
2022-08-20T00:25:51.658Z,13.77
2022-08-20T00:28:18.596Z,14.30
2022-08-20T00:30:46.575Z,15.13
2022-08-20T00:33:19.736Z,14.00
2022-08-20T00:35:50.028Z,15.07
2022-08-20T00:38:16.776Z,14.80
2022-08-20T00:40:53.415Z,15.60
2022-08-20T00:43:34.683Z,16.33
2022-08-20T00:46:05.936Z,16.57
2022-08-20T00:48:35.632Z,15.97
2022-08-20T00:51:09.180Z,16.50
2022-08-20T00:53:37.461Z,16.20
2022-08-20T00:56:06.059Z,16.70
2022-08-20T00:58:33.724Z,16.10
2022-08-20T01:01:00.752Z,16.37
2022-08-20T01:03:27.569Z,16.87
2022-08-20T01:05:54.311Z,17.80
2022-08-20T01:08:24.603Z,15.30
2022-08-20T01:10:53.799Z,16.37
2022-08-20T01:13:24.232Z,16.17
2022-08-20T01:15:54.671Z,15.33
2022-08-20T01:18:25.682Z,15.93
2022-08-20T01:20:58.207Z,16.40
2022-08-20T01:23:41.962Z,16.23
2022-08-20T01:26:13.775Z,15.83
2022-08-20T01:28:58.601Z,16.10
2022-08-20T01:31:30.410Z,16.37
2022-08-20T01:33:58.999Z,15.60
2022-08-20T01:36:32.577Z,17.53
2022-08-20T01:39:00.932Z,16.63
2022-08-20T01:41:36.439Z,15.63
2022-08-20T01:44:03.740Z,16.07
2022-08-20T01:46:36.835Z,16.60
2022-08-20T01:49:23.187Z,16.10
2022-08-20T01:51:52.431Z,16.33
2022-08-20T01:54:20.257Z,15.73
2022-08-20T01:57:10.335Z,16.13
2022-08-20T01:59:37.693Z,15.63
2022-08-20T02:02:07.045Z,16.27
2022-08-20T02:04:34.396Z,16.67
2022-08-20T02:07:04.235Z,16.73
2022-08-20T02:09:39.167Z,15.23
2022-08-20T02:12:09.032Z,15.60
2022-08-20T02:14:40.300Z,16.23
2022-08-20T02:17:07.091Z,15.43
2022-08-20T02:19:41.583Z,16.10
2022-08-20T02:22:24.015Z,16.07
2022-08-20T02:24:51.385Z,15.40
2022-08-20T02:27:19.028Z,14.10
2022-08-20T02:29:46.764Z,15.40
2022-08-20T02:32:32.473Z,14.97
2022-08-20T02:35:02.225Z,15.20
2022-08-20T02:37:29.499Z,15.50
2022-08-20T02:39:56.320Z,15.03
2022-08-20T02:42:23.102Z,14.40
2022-08-20T02:44:49.822Z,14.27
2022-08-20T02:47:17.227Z,14.63
2022-08-20T02:49:44.103Z,14.23
2022-08-20T02:52:11.061Z,13.17
2022-08-20T02:54:37.838Z,13.77
2022-08-20T02:57:04.768Z,14.00
2022-08-20T02:59:31.767Z,13.33
2022-08-20T03:02:00.237Z,14.33
2022-08-20T03:04:28.986Z,13.20
2022-08-20T03:06:55.994Z,13.63
2022-08-20T03:09:23.015Z,13.63
2022-08-20T03:11:49.783Z,13.60
2022-08-20T03:14:16.531Z,13.87
2022-08-20T03:16:43.263Z,13.50
2022-08-20T03:19:10.123Z,13.07
2022-08-20T03:21:37.180Z,14.63
2022-08-20T03:24:04.223Z,14.03
2022-08-20T03:26:31.024Z,13.37
2022-08-20T03:28:57.848Z,14.43
2022-08-20T03:31:24.659Z,13.73
2022-08-20T03:33:53.613Z,14.33
2022-08-20T03:36:28.531Z,14.07
2022-08-20T03:39:01.239Z,13.93
2022-08-20T03:41:29.005Z,14.00
2022-08-20T03:43:56.237Z,12.57
2022-08-20T03:46:23.914Z,14.87
2022-08-20T03:48:59.833Z,14.50
2022-08-20T03:51:31.949Z,14.40
2022-08-20T03:54:18.781Z,13.77
2022-08-20T03:56:45.543Z,13.60
2022-08-20T03:59:12.302Z,13.77
2022-08-20T04:01:46.334Z,13.40
2022-08-20T04:04:14.410Z,13.87
2022-08-20T04:06:42.646Z,13.70
2022-08-20T04:09:12.155Z,13.63
2022-08-20T04:11:39.949Z,12.70
2022-08-20T04:14:06.849Z,12.73
2022-08-20T04:16:34.123Z,13.80
2022-08-20T04:19:03.449Z,13.57
2022-08-20T04:21:33.149Z,13.27
2022-08-20T04:24:04.332Z,13.40
2022-08-20T04:26:31.650Z,14.10
2022-08-20T04:28:58.747Z,13.90
2022-08-20T04:31:25.713Z,13.27
2022-08-20T04:33:52.767Z,12.40
2022-08-20T04:36:19.923Z,13.50
2022-08-20T04:38:48.058Z,12.93
2022-08-20T04:41:22.444Z,12.70
2022-08-20T04:43:54.658Z,13.40
2022-08-20T04:46:23.839Z,13.10
2022-08-20T04:48:50.891Z,12.70
2022-08-20T04:51:18.763Z,13.70
2022-08-20T04:53:52.308Z,12.43
2022-08-20T04:56:24.030Z,12.83
2022-08-20T04:58:52.687Z,12.20
2022-08-20T05:01:20.084Z,13.17
2022-08-20T05:03:49.899Z,12.93
2022-08-20T05:06:18.742Z,12.30
2022-08-20T05:08:45.612Z,12.83
2022-08-20T05:11:33.088Z,12.90
2022-08-20T05:14:01.288Z,12.03
2022-08-20T05:16:28.042Z,11.63
2022-08-20T05:18:54.781Z,12.27
2022-08-20T05:21:21.912Z,12.20
2022-08-20T05:23:49.425Z,11.87
2022-08-20T05:26:16.910Z,11.83
2022-08-20T05:28:54.154Z,12.37
2022-08-20T05:31:32.230Z,11.47
2022-08-20T05:34:12.040Z,11.70
2022-08-20T05:36:41.635Z,11.17
2022-08-20T05:39:09.300Z,11.90
2022-08-20T05:41:36.454Z,11.43
2022-08-20T05:44:03.470Z,11.80
2022-08-20T05:46:32.148Z,11.10
2022-08-20T05:49:01.657Z,11.00
2022-08-20T05:51:29.373Z,11.10
2022-08-20T05:53:58.210Z,11.83
2022-08-20T05:56:27.004Z,10.47
2022-08-20T05:58:54.162Z,11.80
2022-08-20T06:01:21.502Z,11.73
2022-08-20T06:04:07.057Z,11.83
2022-08-20T06:06:39.063Z,11.60
2022-08-20T06:09:31.982Z,11.33
2022-08-20T06:12:04.543Z,10.33
2022-08-20T06:14:32.559Z,11.33
2022-08-20T06:17:07.703Z,10.10
2022-08-20T06:19:36.339Z,10.27
2022-08-20T06:22:17.787Z,10.10
2022-08-20T06:24:51.212Z,10.83
2022-08-20T06:27:18.076Z,10.50
2022-08-20T06:29:44.866Z,11.20
2022-08-20T06:32:11.680Z,10.20
2022-08-20T06:34:38.387Z,10.63
2022-08-20T06:37:21.452Z,10.93
2022-08-20T06:39:48.275Z,9.97
2022-08-20T06:42:15.199Z,9.20
2022-08-20T06:44:50.208Z,9.17
2022-08-20T06:47:19.434Z,9.87
2022-08-20T06:49:47.529Z,9.80
2022-08-20T06:52:17.043Z,10.63
2022-08-20T06:54:44.901Z,9.83
2022-08-20T06:57:11.666Z,9.27
2022-08-20T06:59:38.572Z,9.80
2022-08-20T07:02:05.729Z,10.07
2022-08-20T07:04:32.449Z,9.43
2022-08-20T07:06:59.414Z,9.43
2022-08-20T07:09:27.205Z,10.50
2022-08-20T07:11:54.243Z,10.23
2022-08-20T07:14:22.195Z,9.70
2022-08-20T07:16:49.444Z,9.27
2022-08-20T07:19:16.546Z,10.00
2022-08-20T07:21:43.682Z,9.13
2022-08-20T07:24:10.482Z,9.40
2022-08-20T07:26:37.260Z,9.23
2022-08-20T07:29:04.195Z,9.33
2022-08-20T07:31:49.494Z,9.23
2022-08-20T07:34:16.813Z,8.17
2022-08-20T07:36:48.356Z,8.97
2022-08-20T07:39:15.229Z,9.03
2022-08-20T07:41:43.587Z,8.87
2022-08-20T07:44:21.574Z,9.90
2022-08-20T07:46:59.178Z,9.90
2022-08-20T07:49:25.939Z,8.87
2022-08-20T07:51:52.678Z,9.13
2022-08-20T07:54:19.385Z,9.77
2022-08-20T07:56:46.203Z,9.10
2022-08-20T07:59:16.378Z,8.27
2022-08-20T08:01:43.131Z,9.57
2022-08-20T08:04:09.843Z,9.90
2022-08-20T08:06:36.607Z,10.00
2022-08-20T08:09:08.292Z,9.13
2022-08-20T08:11:38.403Z,9.20
2022-08-20T08:14:08.086Z,8.67
2022-08-20T08:16:35.905Z,8.70
2022-08-20T08:19:06.537Z,9.27
2022-08-20T08:21:33.367Z,8.63
2022-08-20T08:24:00.117Z,8.27
2022-08-20T08:26:28.852Z,8.70
2022-08-20T08:28:56.713Z,8.90
2022-08-20T08:31:25.541Z,7.53
2022-08-20T08:33:52.342Z,7.83
2022-08-20T08:36:19.092Z,7.50
2022-08-20T08:38:45.999Z,8.00
2022-08-20T08:41:29.487Z,7.87
2022-08-20T08:44:12.583Z,7.90
2022-08-20T08:46:43.203Z,7.53
2022-08-20T08:49:13.984Z,8.10
2022-08-20T08:52:08.646Z,7.27
2022-08-20T08:54:35.919Z,7.40
2022-08-20T08:57:02.887Z,8.47
2022-08-20T08:59:48.494Z,7.77
2022-08-20T09:02:23.555Z,7.47
2022-08-20T09:04:51.604Z,7.77
2022-08-20T09:07:18.491Z,7.83
2022-08-20T09:09:46.864Z,8.10
2022-08-20T09:12:19.013Z,7.53
2022-08-20T09:14:50.826Z,7.43
2022-08-20T09:17:20.198Z,7.30
2022-08-20T09:19:47.372Z,7.07
2022-08-20T09:22:18.995Z,7.60
2022-08-20T09:24:46.796Z,6.63
2022-08-20T09:27:13.555Z,7.23
2022-08-20T09:29:40.615Z,7.40
2022-08-20T09:32:21.005Z,6.70
2022-08-20T09:34:52.531Z,7.20
2022-08-20T09:37:19.532Z,6.37
2022-08-20T09:39:47.195Z,7.20
2022-08-20T09:42:19.939Z,7.40
2022-08-20T09:44:46.987Z,7.37
2022-08-20T09:47:14.064Z,7.23
2022-08-20T09:49:41.064Z,7.40
2022-08-20T09:52:10.325Z,7.20
2022-08-20T09:54:39.671Z,7.07
2022-08-20T09:57:14.448Z,7.50
2022-08-20T09:59:41.343Z,7.70
2022-08-20T10:02:08.157Z,7.13
2022-08-20T10:04:34.914Z,6.83
2022-08-20T10:07:01.655Z,7.10
2022-08-20T10:09:28.409Z,6.50
2022-08-20T10:11:55.116Z,6.90
2022-08-20T10:14:21.857Z,5.83
2022-08-20T10:16:55.772Z,6.37
2022-08-20T10:19:27.189Z,6.57
2022-08-20T10:21:54.878Z,6.20
2022-08-20T10:24:22.568Z,5.40
2022-08-20T10:26:50.347Z,5.90
2022-08-20T10:29:17.575Z,5.50
2022-08-20T10:31:44.318Z,4.88
2022-08-20T10:34:11.026Z,4.53
2022-08-20T10:36:37.815Z,4.57
2022-08-20T10:39:04.947Z,4.88
2022-08-20T10:41:31.764Z,5.22
2022-08-20T10:43:58.483Z,4.30
2022-08-20T10:46:25.486Z,4.03
2022-08-20T10:48:52.535Z,3.90
2022-08-20T10:51:19.273Z,3.45
2022-08-20T10:53:46.014Z,3.88
2022-08-20T10:56:15.611Z,4.47
2022-08-20T10:58:42.636Z,4.22
2022-08-20T11:01:11.380Z,3.70
2022-08-20T11:03:38.193Z,5.35
2022-08-20T11:06:05.161Z,4.00
2022-08-20T11:08:33.495Z,4.53
2022-08-20T11:11:01.784Z,5.22
2022-08-20T11:13:28.503Z,4.95
2022-08-20T11:15:55.308Z,4.30
2022-08-20T11:18:22.044Z,4.43
2022-08-20T11:20:48.867Z,4.70
2022-08-20T11:23:15.687Z,4.20
2022-08-20T11:25:42.439Z,4.80
2022-08-20T11:28:09.314Z,6.35
2022-08-20T11:30:37.035Z,5.77
2022-08-20T11:33:04.440Z,4.30
2022-08-20T11:35:49.978Z,3.90
2022-08-20T11:38:17.900Z,3.80
2022-08-20T11:40:46.625Z,3.65
2022-08-20T11:43:16.892Z,3.53
2022-08-20T11:45:47.557Z,3.78
2022-08-20T11:48:14.525Z,3.58
2022-08-20T11:50:41.392Z,3.50
2022-08-20T11:53:08.310Z,4.55
2022-08-20T11:55:36.461Z,4.22
2022-08-20T11:58:03.719Z,3.72
2022-08-20T12:00:33.966Z,4.05
2022-08-20T12:03:02.282Z,3.97
2022-08-20T12:05:30.104Z,4.65
2022-08-20T12:07:57.746Z,3.40
2022-08-20T12:10:26.630Z,2.55
2022-08-20T12:12:53.926Z,2.40
2022-08-20T12:15:20.836Z,2.10
2022-08-20T12:17:47.945Z,2.40
2022-08-20T12:20:16.334Z,2.47
2022-08-20T12:22:43.963Z,2.40
2022-08-20T12:25:11.093Z,3.00
2022-08-20T12:27:38.278Z,2.80
2022-08-20T12:30:12.310Z,3.00
2022-08-20T12:32:39.355Z,2.97
2022-08-20T12:35:08.447Z,3.15
2022-08-20T12:37:36.200Z,2.67
2022-08-20T12:40:07.610Z,2.77
2022-08-20T12:42:34.500Z,4.07
2022-08-20T12:45:01.638Z,2.20
2022-08-20T12:47:34.111Z,1.87
2022-08-20T12:50:31.646Z,2.00
2022-08-20T12:52:59.359Z,1.70
2022-08-20T12:55:26.418Z,2.23
2022-08-20T12:57:56.971Z,2.00
2022-08-20T13:00:28.571Z,2.00
2022-08-20T13:02:59.069Z,1.60
2022-08-20T13:05:27.183Z,1.90
2022-08-20T13:07:55.327Z,1.70
2022-08-20T13:10:28.094Z,2.00
2022-08-20T13:12:55.530Z,1.90
2022-08-20T13:15:23.767Z,1.88
2022-08-20T13:17:55.058Z,1.60
2022-08-20T13:20:25.169Z,1.70
2022-08-20T13:22:52.979Z,1.63
2022-08-20T13:25:20.969Z,1.60
2022-08-20T13:27:47.992Z,1.40
2022-08-20T13:30:19.083Z,1.45
2022-08-20T13:32:46.215Z,1.50
2022-08-20T13:35:14.159Z,1.40
2022-08-20T13:37:41.742Z,1.50
2022-08-20T13:40:09.630Z,1.60
2022-08-20T13:42:36.528Z,1.58
2022-08-20T13:45:04.895Z,2.03
2022-08-20T13:47:35.051Z,1.83
2022-08-20T13:50:12.940Z,1.70
2022-08-20T13:52:42.610Z,2.03
2022-08-20T13:55:11.871Z,1.70
2022-08-20T13:57:38.826Z,1.77
2022-08-20T14:00:13.008Z,1.80
2022-08-20T14:02:40.767Z,1.80
2022-08-20T14:05:08.689Z,1.80
2022-08-20T14:07:35.591Z,1.70
2022-08-20T14:10:07.119Z,2.00
2022-08-20T14:12:34.484Z,2.13
2022-08-20T14:15:01.386Z,2.17
2022-08-20T14:17:30.931Z,2.10
2022-08-20T14:20:01.735Z,2.03
2022-08-20T14:22:29.390Z,1.87
2022-08-20T14:24:56.689Z,1.60
2022-08-20T14:27:29.032Z,1.40
2022-08-20T14:29:58.037Z,1.47
2022-08-20T14:32:25.023Z,1.30
2022-08-20T14:34:51.774Z,1.37
2022-08-20T14:37:33.323Z,1.50
2022-08-20T14:40:02.441Z,1.20
2022-08-20T14:42:30.449Z,1.50
2022-08-20T14:44:59.000Z,1.87
2022-08-20T14:47:32.006Z,1.90
2022-08-20T14:50:02.862Z,2.17
2022-08-20T14:52:33.766Z,3.50
2022-08-20T14:55:00.513Z,3.43
2022-08-20T14:57:27.676Z,2.50
2022-08-20T14:59:54.534Z,2.53
2022-08-20T15:02:22.170Z,2.70
2022-08-20T15:04:53.986Z,2.53
2022-08-20T15:07:31.458Z,2.40
2022-08-20T15:10:01.848Z,2.10
2022-08-20T15:12:29.011Z,2.00
2022-08-20T15:14:55.777Z,2.17
2022-08-20T15:17:29.535Z,1.90
2022-08-20T15:19:57.412Z,2.30
2022-08-20T15:22:24.703Z,1.70
2022-08-20T15:24:57.594Z,2.10
2022-08-20T15:27:25.625Z,1.90
2022-08-20T15:29:53.019Z,1.63
2022-08-20T15:32:20.774Z,1.90
2022-08-20T15:34:48.040Z,1.77
2022-08-20T15:37:23.161Z,2.20
2022-08-20T15:39:51.084Z,1.83
2022-08-20T15:42:19.560Z,1.70
2022-08-20T15:44:46.709Z,1.90
2022-08-20T15:47:33.879Z,1.40
2022-08-20T15:50:08.039Z,1.80
2022-08-20T15:52:42.769Z,1.77
2022-08-20T15:55:14.823Z,1.70
2022-08-20T15:58:01.936Z,1.70
2022-08-20T16:00:46.369Z,1.60
2022-08-20T16:03:34.191Z,2.30
2022-08-20T16:06:13.698Z,1.60
2022-08-20T16:09:17.122Z,1.40
2022-08-20T16:12:00.285Z,1.63
2022-08-20T16:14:30.923Z,1.60
2022-08-20T16:17:05.542Z,1.70
2022-08-20T16:19:41.490Z,1.90
2022-08-20T16:22:13.914Z,1.60
2022-08-20T16:24:40.724Z,10.10
2022-08-20T16:27:32.740Z,7.40
2022-08-20T16:30:21.750Z,12.77
2022-08-20T16:33:02.432Z,2.93
2022-08-20T16:35:36.986Z,2.10
2022-08-20T16:38:41.575Z,2.07
2022-08-20T16:41:21.787Z,1.70
2022-08-20T16:44:07.710Z,1.63
2022-08-20T16:46:40.320Z,1.83
2022-08-20T16:49:13.465Z,1.73
2022-08-20T16:51:46.112Z,1.63
2022-08-20T16:54:16.863Z,1.67
2022-08-20T16:56:49.854Z,1.80
2022-08-20T16:59:27.243Z,1.63
2022-08-20T17:02:01.842Z,1.90
2022-08-20T17:04:42.328Z,2.00
2022-08-20T17:07:13.062Z,1.70
2022-08-20T17:09:43.446Z,1.80
2022-08-20T17:12:27.286Z,1.80
2022-08-20T17:14:56.411Z,1.90
2022-08-20T17:17:37.204Z,1.70
2022-08-20T17:20:20.225Z,1.97
2022-08-20T17:23:10.886Z,1.80
2022-08-20T17:25:38.502Z,1.87
2022-08-20T17:28:23.863Z,1.80
2022-08-20T17:30:51.578Z,1.90
2022-08-20T17:33:35.914Z,1.70
2022-08-20T17:36:17.454Z,1.80
2022-08-20T17:39:11.381Z,1.80
2022-08-20T17:41:38.335Z,1.80
2022-08-20T17:44:20.553Z,1.67
2022-08-20T17:46:48.827Z,1.80
2022-08-20T17:49:19.768Z,1.83
2022-08-20T17:51:50.436Z,1.50
2022-08-20T17:54:40.584Z,1.57
2022-08-20T17:57:12.656Z,1.23
2022-08-20T18:00:04.406Z,1.20
2022-08-20T18:02:31.388Z,1.10
2022-08-20T18:04:58.167Z,1.27
2022-08-20T18:07:31.128Z,1.10
2022-08-20T18:10:09.030Z,0.93
2022-08-20T18:12:47.514Z,1.00
2022-08-20T18:15:24.752Z,0.97
2022-08-20T18:18:06.773Z,1.13
2022-08-20T18:20:54.826Z,1.20
2022-08-20T18:23:27.871Z,1.20
2022-08-20T18:26:07.612Z,1.30
2022-08-20T18:28:39.296Z,1.30
2022-08-20T18:31:08.959Z,0.90
2022-08-20T18:33:42.209Z,1.10
2022-08-20T18:36:17.831Z,1.17
2022-08-20T18:38:56.843Z,1.10
2022-08-20T18:41:40.078Z,1.30
2022-08-20T18:44:29.435Z,1.20
2022-08-20T18:47:01.969Z,1.20
2022-08-20T18:49:40.651Z,1.30
2022-08-20T18:52:18.177Z,1.10
2022-08-20T18:54:58.033Z,1.30
2022-08-20T18:57:40.850Z,1.20
2022-08-20T19:00:16.770Z,1.17
2022-08-20T19:03:06.544Z,1.40
2022-08-20T19:05:45.687Z,1.40
2022-08-20T19:08:17.917Z,1.20
2022-08-20T19:11:14.644Z,1.07
2022-08-20T19:13:54.751Z,1.10
2022-08-20T19:16:33.987Z,1.10
2022-08-20T19:19:01.047Z,1.03
2022-08-20T19:21:32.517Z,1.50
2022-08-20T19:24:03.417Z,1.40
2022-08-20T19:26:32.953Z,1.30
2022-08-20T19:29:07.075Z,1.37
2022-08-20T19:31:35.448Z,1.47
2022-08-20T19:34:19.563Z,1.57
2022-08-20T19:37:35.202Z,1.33
2022-08-20T19:40:18.398Z,1.40
2022-08-20T19:42:45.994Z,1.33
2022-08-20T19:45:25.992Z,1.50
2022-08-20T19:48:12.559Z,1.20
2022-08-20T19:50:54.785Z,1.40
2022-08-20T19:53:34.244Z,1.47
2022-08-20T19:56:02.882Z,1.30
2022-08-20T19:58:31.461Z,1.47
2022-08-20T20:01:00.814Z,1.60
2022-08-20T20:03:32.070Z,1.43
2022-08-20T20:06:18.344Z,1.47
2022-08-20T20:08:50.407Z,1.80
2022-08-20T20:11:20.338Z,1.23
2022-08-20T20:13:47.453Z,1.50
2022-08-20T20:16:19.192Z,1.60
2022-08-20T20:18:54.823Z,1.47
2022-08-20T20:21:41.887Z,1.70
2022-08-20T20:24:10.288Z,1.40
2022-08-20T20:26:40.710Z,1.40
2022-08-20T20:29:11.501Z,1.57
2022-08-20T20:31:47.476Z,1.53
2022-08-20T20:34:16.962Z,1.80
2022-08-20T20:36:46.718Z,1.87
2022-08-20T20:39:33.219Z,1.70
2022-08-20T20:42:02.517Z,1.50
2022-08-20T20:44:37.498Z,1.67
2022-08-20T20:47:08.124Z,1.70
2022-08-20T20:49:57.939Z,1.47
2022-08-20T20:52:32.362Z,1.53
2022-08-20T20:55:13.188Z,1.80
2022-08-20T20:57:39.943Z,1.90
2022-08-20T21:00:13.697Z,1.70
2022-08-20T21:02:41.030Z,1.60
2022-08-20T21:05:08.390Z,1.60
2022-08-20T21:07:43.828Z,1.80
2022-08-20T21:10:10.790Z,1.50
2022-08-20T21:12:39.241Z,1.93
2022-08-20T21:15:06.411Z,1.60
2022-08-20T21:17:33.241Z,2.10
2022-08-20T21:20:00.956Z,1.73
2022-08-20T21:22:28.123Z,1.73
2022-08-20T21:24:54.839Z,1.40
2022-08-20T21:27:24.672Z,1.60
2022-08-20T21:29:52.532Z,1.63
2022-08-20T21:32:19.783Z,1.67
2022-08-20T21:34:47.398Z,1.70
2022-08-20T21:37:14.634Z,1.70
2022-08-20T21:39:41.824Z,1.60
2022-08-20T21:42:28.152Z,1.50
2022-08-20T21:44:56.856Z,1.50
2022-08-20T21:47:23.650Z,1.50
2022-08-20T21:49:50.375Z,1.67
2022-08-20T21:52:17.158Z,1.40
2022-08-20T21:54:43.902Z,1.50
2022-08-20T21:57:23.359Z,1.60
2022-08-20T21:59:50.545Z,1.67
2022-08-20T22:02:19.306Z,1.50
2022-08-20T22:04:46.050Z,1.50
2022-08-20T22:07:13.803Z,1.60
2022-08-20T22:09:40.613Z,1.43
2022-08-20T22:12:22.884Z,1.67
2022-08-20T22:14:50.254Z,1.40
2022-08-20T22:17:17.008Z,1.50
2022-08-20T22:19:43.886Z,1.43
2022-08-20T22:22:11.972Z,1.57
2022-08-20T22:24:39.527Z,1.43
2022-08-20T22:27:07.022Z,1.33
2022-08-20T22:29:34.222Z,1.70
2022-08-20T22:32:01.483Z,1.60
2022-08-20T22:34:31.951Z,1.53
2022-08-20T22:36:59.618Z,1.50
2022-08-20T22:39:27.274Z,1.47
2022-08-20T22:41:53.989Z,1.30
2022-08-20T22:44:20.974Z,1.60
2022-08-20T22:46:52.626Z,1.50
2022-08-20T22:49:26.757Z,1.20
2022-08-20T22:51:53.847Z,1.40
2022-08-20T22:54:24.544Z,1.60
2022-08-20T22:56:52.423Z,1.40
2022-08-20T22:59:21.251Z,1.50
2022-08-20T23:01:50.607Z,1.40
2022-08-20T23:04:30.052Z,1.80
2022-08-20T23:06:57.894Z,1.40
2022-08-20T23:09:24.974Z,1.40
2022-08-20T23:11:52.123Z,1.40
2022-08-20T23:14:19.384Z,1.50
2022-08-20T23:16:51.839Z,1.60
2022-08-20T23:19:23.809Z,1.67
2022-08-20T23:21:51.846Z,1.43
2022-08-20T23:24:19.744Z,1.43
2022-08-20T23:26:52.419Z,1.43
2022-08-20T23:29:22.532Z,1.43
2022-08-20T23:31:55.036Z,1.40
2022-08-20T23:34:22.061Z,1.40
2022-08-20T23:36:49.180Z,1.40
2022-08-20T23:39:16.119Z,1.40
2022-08-20T23:41:47.765Z,1.57
2022-08-20T23:44:26.584Z,1.30
2022-08-20T23:47:00.407Z,1.60
2022-08-20T23:49:28.131Z,1.47
2022-08-20T23:51:55.305Z,1.37
2022-08-20T23:54:22.107Z,1.40
2022-08-20T23:56:49.508Z,1.40
2022-08-20T23:59:16.300Z,1.33
